Time;durP1;ratioP1;P1;durP2;ratioP2;P2;SDS_P1;SDS_P2;PMS_P1;PMS_P2;Temp;Humidity;BMP_temperature;BMP_pressure;BME280_temperature;BME280_humidity;BME280_pressure;Samples;Min_cycle;Max_cycle;Signal;HPM_P1;HPM_P2
2022/09/23 00:00:15;;;;;;;1.10;0.87;;;9.40;99.90;;;;;;6193012;23;20267;-87
2022/09/23 00:02:41;;;;;;;1.00;1.00;;;9.30;99.90;;;;;;6218427;23;20023;-87
2022/09/23 00:05:09;;;;;;;1.05;0.65;;;9.30;99.90;;;;;;6193118;23;20020;-87
2022/09/23 00:07:35;;;;;;;1.13;0.90;;;9.30;99.90;;;;;;6193987;23;20013;-87
2022/09/23 00:10:00;;;;;;;1.40;0.90;;;9.30;99.90;;;;;;6168126;23;20023;-87
2022/09/23 00:12:26;;;;;;;1.17;1.07;;;9.20;99.90;;;;;;6168940;23;20095;-87
2022/09/23 00:14:52;;;;;;;1.27;1.17;;;9.20;99.90;;;;;;6144303;23;20062;-87
2022/09/23 00:17:17;;;;;;;1.20;1.07;;;9.20;99.90;;;;;;6193055;23;20163;-87
2022/09/23 00:19:43;;;;;;;2.90;1.13;;;9.20;99.90;;;;;;6193170;23;20023;-87
2022/09/23 00:22:09;;;;;;;0.90;0.87;;;9.20;99.90;;;;;;6217891;23;20020;-87
2022/09/23 00:24:35;;;;;;;0.80;0.80;;;9.20;99.90;;;;;;6193661;23;20059;-87
2022/09/23 00:27:03;;;;;;;1.30;0.77;;;9.80;99.90;;;;;;6192813;23;20094;-86
2022/09/23 00:29:28;;;;;;;1.27;1.05;;;9.20;99.90;;;;;;6193405;23;20015;-87
2022/09/23 00:31:54;;;;;;;1.23;1.07;;;9.10;99.90;;;;;;6193415;23;20048;-87
2022/09/23 00:34:20;;;;;;;0.70;0.70;;;9.10;99.90;;;;;;6192792;23;20012;-87
2022/09/23 00:36:45;;;;;;;1.33;0.80;;;9.10;99.90;;;;;;6168747;23;20008;-87
2022/09/23 00:39:11;;;;;;;1.53;1.10;;;9.10;99.90;;;;;;6167705;23;20022;-87
2022/09/23 00:41:37;;;;;;;0.87;0.63;;;9.10;99.90;;;;;;6168825;23;20020;-87
2022/09/23 00:44:41;;;;;;;1.00;0.90;;;9.10;99.90;;;;;;6193016;23;20453;-86
2022/09/23 00:47:15;;;;;;;1.15;1.05;;;9.10;99.90;;;;;;6192595;23;20310;-86
2022/09/23 00:49:42;;;;;;;0.75;0.63;;;9.10;99.90;;;;;;6193493;23;20015;-86
2022/09/23 00:52:14;;;;;;;2.58;1.00;;;9.00;99.90;;;;;;6217658;23;20018;-87
2022/09/23 00:54:41;;;;;;;1.08;0.98;;;9.00;99.90;;;;;;6193794;23;20024;-87
2022/09/23 00:57:10;;;;;;;0.93;0.80;;;9.00;99.90;;;;;;6192588;23;20021;-87
2022/09/23 00:59:36;;;;;;;1.70;1.00;;;9.00;99.90;;;;;;6218315;23;20020;-87
2022/09/23 01:02:03;;;;;;;1.08;0.98;;;9.00;99.90;;;;;;6217893;23;20519;-86
2022/09/23 01:04:30;;;;;;;1.83;1.15;;;9.00;99.90;;;;;;6193112;23;20233;-87
2022/09/23 01:06:55;;;;;;;1.08;0.88;;;9.00;99.90;;;;;;6218162;23;20016;-87
2022/09/23 01:09:24;;;;;;;0.85;0.77;;;8.90;99.90;;;;;;6218547;23;20337;-87
2022/09/23 01:11:59;;;;;;;0.70;0.70;;;8.90;99.90;;;;;;6192903;23;20016;-87
2022/09/23 01:14:48;;;;;;;1.90;1.00;;;8.90;99.90;;;;;;6192519;23;20174;-87
2022/09/23 01:17:43;;;;;;;1.48;0.98;;;8.90;99.90;;;;;;6171338;23;20012;-87
2022/09/23 01:20:32;;;;;;;1.65;1.20;;;8.90;99.90;;;;;;6192516;23;20034;-87
2022/09/23 01:23:31;;;;;;;1.45;0.93;;;8.90;99.90;;;;;;6193223;23;20020;-87
2022/09/23 01:26:06;;;;;;;1.00;1.00;;;8.90;99.90;;;;;;6193090;23;20377;-87
2022/09/23 01:28:53;;;;;;;0.90;0.90;;;8.90;99.90;;;;;;6217983;23;20031;-87
2022/09/23 01:31:34;;;;;;;1.35;1.10;;;8.80;99.90;;;;;;6191981;23;20635;-87
2022/09/23 01:34:23;;;;;;;1.00;0.90;;;8.80;99.90;;;;;;6217826;23;20460;-87
2022/09/23 01:37:25;;;;;;;1.10;0.88;;;8.80;99.90;;;;;;6218354;23;20453;-87
2022/09/23 01:40:00;;;;;;;1.02;0.85;;;8.80;99.90;;;;;;6218271;23;20052;-87
2022/09/23 01:42:40;;;;;;;1.33;0.90;;;8.80;99.90;;;;;;6192522;23;20020;-86
2022/09/23 01:45:12;;;;;;;1.13;0.93;;;8.70;99.90;;;;;;6192965;23;20016;-87
2022/09/23 01:48:09;;;;;;;0.85;0.85;;;8.80;99.90;;;;;;6219492;23;20012;-87
2022/09/23 01:50:56;;;;;;;0.80;0.80;;;8.70;99.90;;;;;;6183356;23;20468;-87
2022/09/23 01:53:48;;;;;;;1.60;1.00;;;8.70;99.90;;;;;;6194140;23;20020;-86
2022/09/23 01:56:22;;;;;;;0.98;0.80;;;7.60;99.90;;;;;;6219464;23;20058;-86
2022/09/23 01:59:25;;;;;;;1.13;1.02;;;8.60;99.90;;;;;;6195294;23;20016;-87
2022/09/23 02:01:59;;;;;;;1.15;0.90;;;8.60;99.90;;;;;;6175417;23;20020;-87
2022/09/23 02:04:38;;;;;;;1.92;1.20;;;8.60;99.90;;;;;;6194455;23;20095;-87
2022/09/23 02:07:32;;;;;;;1.00;0.90;;;8.60;99.90;;;;;;6219754;23;20012;-87
2022/09/23 02:10:08;;;;;;;1.48;1.35;;;8.60;99.90;;;;;;6182854;23;20020;-87
2022/09/23 02:12:37;;;;;;;1.48;0.77;;;8.60;99.90;;;;;;6219280;23;20457;-87
2022/09/23 02:15:07;;;;;;;2.65;1.20;;;8.60;99.90;;;;;;6219895;23;20012;-87
2022/09/23 02:17:52;;;;;;;1.13;0.90;;;8.60;99.90;;;;;;6218917;23;20256;-87
2022/09/23 02:20:26;;;;;;;0.95;0.90;;;8.60;99.90;;;;;;6194205;23;20099;-87
2022/09/23 02:23:02;;;;;;;1.45;1.38;;;8.60;99.90;;;;;;6220037;23;20023;-87
2022/09/23 02:25:40;;;;;;;1.38;1.05;;;8.60;99.90;;;;;;6193877;23;20322;-87
2022/09/23 02:28:12;;;;;;;1.08;1.02;;;8.60;99.90;;;;;;6219630;23;20146;-87
2022/09/23 02:30:48;;;;;;;1.88;1.20;;;8.90;99.90;;;;;;6219275;23;20016;-87
2022/09/23 02:33:27;;;;;;;1.27;1.15;;;8.60;99.90;;;;;;6219419;23;20012;-86
2022/09/23 02:36:22;;;;;;;1.88;0.95;;;8.60;99.90;;;;;;6194815;23;20016;-87
2022/09/23 02:38:56;;;;;;;2.72;1.13;;;8.60;99.90;;;;;;6219512;23;20077;-87
2022/09/23 02:41:33;;;;;;;2.33;0.88;;;8.50;99.90;;;;;;6218755;23;20091;-87
2022/09/23 02:44:02;;;;;;;1.40;1.00;;;8.50;99.90;;;;;;6220105;23;20019;-87
2022/09/23 02:46:31;;;;;;;1.02;0.90;;;8.50;99.90;;;;;;6218746;23;20735;-87
2022/09/23 02:49:20;;;;;;;2.47;0.90;;;8.50;99.90;;;;;;6194914;23;20023;-87
2022/09/23 02:51:46;;;;;;;1.20;0.85;;;8.40;99.90;;;;;;6194659;23;20457;-87
2022/09/23 02:54:15;;;;;;;0.83;0.60;;;8.40;99.90;;;;;;6219423;23;20020;-87
2022/09/23 02:56:41;;;;;;;2.25;1.10;;;8.40;99.90;;;;;;6218888;23;20024;-86
2022/09/23 02:59:08;;;;;;;1.38;0.98;;;8.30;99.90;;;;;;6193637;23;20016;-87
2022/09/23 03:01:51;;;;;;;1.65;0.82;;;8.30;99.90;;;;;;6193762;23;20082;-87
2022/09/23 03:04:16;;;;;;;1.67;0.95;;;8.20;99.90;;;;;;6219602;23;20303;-87
2022/09/23 03:06:54;;;;;;;1.33;0.90;;;8.20;99.90;;;;;;6193614;23;20019;-87
2022/09/23 03:09:29;;;;;;;3.45;0.73;;;8.20;99.90;;;;;;6218833;23;20391;-85
2022/09/23 03:12:20;;;;;;;1.13;0.73;;;8.20;99.90;;;;;;6194157;23;20018;-87
2022/09/23 03:14:56;;;;;;;1.30;1.20;;;8.10;99.90;;;;;;6219084;23;20039;-87
2022/09/23 03:17:36;;;;;;;1.67;0.90;;;8.10;99.90;;;;;;6244147;23;20530;-86
2022/09/23 03:20:10;;;;;;;1.67;1.00;;;8.10;99.90;;;;;;6218913;23;20039;-87
2022/09/23 03:22:50;;;;;;;2.50;1.00;;;8.00;99.90;;;;;;6193561;23;20070;-87
2022/09/23 03:25:21;;;;;;;0.75;0.70;;;8.00;99.90;;;;;;6219364;23;20384;-87
2022/09/23 03:27:46;;;;;;;1.83;0.93;;;8.00;99.90;;;;;;6193912;23;20052;-87
2022/09/23 03:30:14;;;;;;;0.67;0.67;;;7.90;99.90;;;;;;6169427;23;20023;-87
2022/09/23 03:32:45;;;;;;;1.25;0.60;;;8.90;99.90;;;;;;6193413;23;20031;-87
2022/09/23 03:35:13;;;;;;;0.75;0.75;;;7.90;99.90;;;;;;6194119;23;20016;-87
2022/09/23 03:37:52;;;;;;;1.65;0.90;;;7.80;99.90;;;;;;6218376;23;20019;-87
2022/09/23 03:40:25;;;;;;;1.17;0.70;;;7.80;99.90;;;;;;6218865;23;20023;-87
2022/09/23 03:42:52;;;;;;;1.50;1.20;;;7.70;99.90;;;;;;6219233;23;20023;-86
2022/09/23 03:45:22;;;;;;;1.52;0.93;;;7.70;99.90;;;;;;6219223;23;20460;-87
2022/09/23 03:47:48;;;;;;;1.17;1.08;;;7.70;99.90;;;;;;6193344;23;20052;-87
2022/09/23 03:50:16;;;;;;;0.80;0.57;;;7.70;99.90;;;;;;6193744;23;20019;-86
2022/09/23 03:52:42;;;;;;;1.02;0.70;;;7.60;99.90;;;;;;6218273;23;20011;-87
2022/09/23 03:55:09;;;;;;;1.73;1.08;;;7.60;99.90;;;;;;6193984;23;20480;-87
2022/09/23 03:57:35;;;;;;;0.60;0.50;;;7.60;99.90;;;;;;6192789;23;20020;-86
2022/09/23 04:00:03;;;;;;;2.03;1.00;;;7.60;99.90;;;;;;6193812;23;20023;-86
2022/09/23 04:02:29;;;;;;;1.00;0.90;;;8.10;99.90;;;;;;6217119;23;20016;-86
2022/09/23 04:04:54;;;;;;;1.73;1.17;;;7.50;99.90;;;;;;6193755;23;20019;-87
2022/09/23 04:07:20;;;;;;;0.63;0.63;;;7.70;99.90;;;;;;6218713;23;20016;-87
2022/09/23 04:09:46;;;;;;;1.03;0.60;;;7.60;99.90;;;;;;6192974;23;20078;-87
2022/09/23 04:12:14;;;;;;;0.80;0.80;;;7.60;99.90;;;;;;6193599;23;20016;-87
2022/09/23 04:14:40;;;;;;;2.13;1.08;;;7.50;99.90;;;;;;6218251;23;20016;-87
2022/09/23 04:17:06;;;;;;;1.30;1.17;;;7.50;99.90;;;;;;6194123;23;20047;-86
2022/09/23 04:19:32;;;;;;;2.83;1.30;;;7.50;99.90;;;;;;6192959;23;20028;-86
2022/09/23 04:21:57;;;;;;;1.57;0.90;;;7.60;99.90;;;;;;6218817;23;20078;-86
2022/09/23 04:24:23;;;;;;;1.53;1.23;;;7.60;99.90;;;;;;6218645;23;20332;-87
2022/09/23 04:26:54;;;;;;;0.87;0.87;;;7.60;99.90;;;;;;6143359;23;20273;-87
2022/09/23 04:29:20;;;;;;;0.90;0.88;;;7.20;99.90;;;;;;6218671;23;20016;-87
2022/09/23 04:31:46;;;;;;;1.70;1.00;;;7.60;99.90;;;;;;6217910;23;20090;-87
2022/09/23 04:34:12;;;;;;;1.30;1.00;;;7.70;99.90;;;;;;6193422;23;20019;-87
2022/09/23 04:36:38;;;;;;;2.53;1.25;;;7.60;99.90;;;;;;6217904;23;20023;-86
2022/09/23 04:39:04;;;;;;;1.70;0.93;;;7.60;99.90;;;;;;6168840;23;20012;-87
2022/09/23 04:41:30;;;;;;;1.23;0.50;;;7.70;99.90;;;;;;6193587;23;20448;-87
2022/09/23 04:43:56;;;;;;;1.23;0.87;;;7.70;99.90;;;;;;6192618;23;20318;-86
2022/09/23 04:46:22;;;;;;;2.88;1.38;;;7.70;99.90;;;;;;6193513;23;20009;-86
2022/09/23 04:48:48;;;;;;;1.30;1.05;;;7.70;99.90;;;;;;6217855;23;20013;-87
2022/09/23 04:51:16;;;;;;;2.33;1.00;;;7.70;99.90;;;;;;6168498;23;20101;-87
2022/09/23 04:53:44;;;;;;;1.00;1.00;;;7.70;99.90;;;;;;6217530;23;20013;-86
2022/09/23 04:56:12;;;;;;;2.08;1.23;;;7.70;99.90;;;;;;6193086;23;20055;-87
2022/09/23 04:58:40;;;;;;;0.57;0.57;;;7.70;99.90;;;;;;6217930;23;20028;-87
2022/09/23 05:01:12;;;;;;;1.27;1.15;;;7.70;99.90;;;;;;6218470;23;20022;-87
2022/09/23 05:03:39;;;;;;;1.05;0.95;;;7.70;99.90;;;;;;6217715;23;20077;-87
2022/09/23 05:06:04;;;;;;;0.77;0.77;;;7.80;99.90;;;;;;6218057;23;20095;-86
2022/09/23 05:08:30;;;;;;;1.33;1.07;;;7.80;99.90;;;;;;6193453;23;20048;-87
2022/09/23 05:11:01;;;;;;;1.87;1.00;;;7.80;99.90;;;;;;6192666;23;20065;-86
2022/09/23 05:13:26;;;;;;;1.75;1.23;;;7.80;99.90;;;;;;6193206;23;20016;-87
2022/09/23 05:16:01;;;;;;;0.93;0.93;;;7.80;99.90;;;;;;6192429;23;20024;-86
2022/09/23 05:18:31;;;;;;;1.77;0.85;;;7.80;99.90;;;;;;6218276;23;20314;-86
2022/09/23 05:20:57;;;;;;;1.55;1.00;;;7.80;99.90;;;;;;6217011;23;20012;-86
2022/09/23 05:23:23;;;;;;;1.07;0.97;;;7.70;99.90;;;;;;6193167;23;20385;-87
2022/09/23 05:25:59;;;;;;;1.57;0.70;;;7.70;99.90;;;;;;6192207;23;20012;-86
2022/09/23 05:28:26;;;;;;;0.60;0.60;;;7.80;99.90;;;;;;6218508;23;20023;-87
2022/09/23 05:30:52;;;;;;;1.00;0.75;;;7.80;99.90;;;;;;6167892;23;20507;-86
2022/09/23 05:33:18;;;;;;;0.70;0.70;;;7.80;99.90;;;;;;6168318;23;20016;-87
2022/09/23 05:35:47;;;;;;;1.77;1.10;;;7.90;99.90;;;;;;6192562;23;20016;-87
2022/09/23 05:38:15;;;;;;;1.23;0.70;;;7.90;99.90;;;;;;6168478;23;20016;-86
2022/09/23 05:40:42;;;;;;;1.35;1.02;;;8.90;99.90;;;;;;6192669;23;20100;-85
2022/09/23 05:43:07;;;;;;;1.33;1.23;;;8.10;99.90;;;;;;6144407;23;20016;-86
2022/09/23 05:45:34;;;;;;;0.97;0.97;;;7.90;99.90;;;;;;6143682;23;20488;-87
2022/09/23 05:48:00;;;;;;;3.50;1.08;;;8.00;99.90;;;;;;6143430;23;20563;-86
2022/09/23 05:50:26;;;;;;;1.37;0.80;;;8.00;99.90;;;;;;6193278;23;20042;-87
2022/09/23 05:52:52;;;;;;;0.70;0.63;;;7.50;99.90;;;;;;6167796;23;20027;-87
2022/09/23 05:55:17;;;;;;;1.37;0.80;;;8.10;99.90;;;;;;6217653;23;20019;-87
2022/09/23 05:57:43;;;;;;;1.67;1.40;;;8.10;99.90;;;;;;6192150;23;20008;-85
2022/09/23 06:00:09;;;;;;;1.10;0.90;;;8.10;99.90;;;;;;6192680;23;20530;-87
2022/09/23 06:02:35;;;;;;;1.23;0.98;;;8.20;99.90;;;;;;6217734;23;20016;-86
2022/09/23 06:05:01;;;;;;;1.20;1.10;;;8.20;99.90;;;;;;6167504;23;20016;-87
2022/09/23 06:07:27;;;;;;;1.13;0.90;;;8.30;99.90;;;;;;6192830;23;20016;-87
2022/09/23 06:09:52;;;;;;;0.83;0.67;;;8.50;99.90;;;;;;6192262;23;20024;-86
2022/09/23 06:12:19;;;;;;;1.50;1.20;;;8.70;99.90;;;;;;6192896;23;20012;-87
2022/09/23 06:14:45;;;;;;;1.08;1.02;;;8.50;99.90;;;;;;6192711;23;20016;-85
2022/09/23 06:17:10;;;;;;;2.27;0.80;;;8.60;99.90;;;;;;6218002;23;20016;-87
2022/09/23 06:19:36;;;;;;;1.50;1.10;;;8.70;99.90;;;;;;6143413;23;20024;-87
2022/09/23 06:22:02;;;;;;;0.80;0.80;;;8.90;99.90;;;;;;6191916;23;20016;-87
2022/09/23 06:24:28;;;;;;;1.43;1.33;;;9.10;99.90;;;;;;6192945;23;20017;-87
2022/09/23 06:26:54;;;;;;;0.67;0.60;;;9.20;99.90;;;;;;6217303;23;20405;-87
2022/09/23 06:29:19;;;;;;;1.57;1.27;;;9.30;99.90;;;;;;6168343;23;20023;-86
2022/09/23 06:31:48;;;;;;;2.00;0.97;;;9.60;99.90;;;;;;6217686;23;20727;-86
2022/09/23 06:34:13;;;;;;;1.40;1.23;;;9.70;99.90;;;;;;6194696;23;20020;-86
2022/09/23 06:36:40;;;;;;;1.30;1.20;;;9.80;99.90;;;;;;6219815;23;20086;-86
2022/09/23 06:39:06;;;;;;;1.10;1.00;;;9.80;99.90;;;;;;6218630;23;20020;-86
2022/09/23 06:41:32;;;;;;;2.03;1.07;;;9.80;99.90;;;;;;6169558;23;20012;-86
2022/09/23 06:43:58;;;;;;;1.63;1.13;;;9.80;99.90;;;;;;6169418;23;20020;-86
2022/09/23 06:46:23;;;;;;;4.50;1.37;;;9.80;99.90;;;;;;6194588;23;20395;-86
2022/09/23 06:48:49;;;;;;;1.23;0.97;;;9.90;99.90;;;;;;6169210;23;20060;-85
2022/09/23 06:51:18;;;;;;;1.50;0.88;;;9.90;99.90;;;;;;6219414;23;20502;-86
2022/09/23 06:53:46;;;;;;;1.40;0.70;;;9.90;99.90;;;;;;6219169;23;20012;-87
2022/09/23 06:56:11;;;;;;;0.70;0.70;;;10.00;99.90;;;;;;6219236;23;20074;-87
2022/09/23 06:58:38;;;;;;;1.43;0.80;;;10.00;99.90;;;;;;6219898;23;20329;-87
2022/09/23 07:01:12;;;;;;;1.98;1.02;;;10.10;99.90;;;;;;6169667;23;20392;-93
2022/09/23 07:03:38;;;;;;;0.90;0.70;;;10.10;99.90;;;;;;6218980;23;20016;-88
2022/09/23 07:06:06;;;;;;;1.35;0.80;;;10.10;99.90;;;;;;6193845;23;20023;-87
2022/09/23 07:08:32;;;;;;;1.42;1.05;;;10.10;99.90;;;;;;6218763;23;20016;-86
2022/09/23 07:11:00;;;;;;;2.35;0.85;;;10.10;99.90;;;;;;6218911;23;20013;-86
2022/09/23 07:13:27;;;;;;;1.75;1.25;;;10.20;99.90;;;;;;6194597;23;20016;-87
2022/09/23 07:15:57;;;;;;;1.65;1.02;;;10.20;99.90;;;;;;6219071;23;20008;-87
2022/09/23 07:18:24;;;;;;;1.40;1.00;;;10.20;99.90;;;;;;6219589;23;20027;-86
2022/09/23 07:20:51;;;;;;;0.68;0.60;;;10.20;99.90;;;;;;6219401;23;20087;-87
2022/09/23 07:23:17;;;;;;;0.68;0.43;;;10.20;99.90;;;;;;6193930;23;20091;-87
2022/09/23 07:25:45;;;;;;;1.50;0.90;;;10.20;99.90;;;;;;6169650;23;20369;-88
2022/09/23 07:28:12;;;;;;;1.77;0.93;;;10.30;99.90;;;;;;6194449;23;20392;-87
2022/09/23 07:30:42;;;;;;;1.25;0.90;;;10.30;99.90;;;;;;6194060;23;20020;-88
2022/09/23 07:33:07;;;;;;;1.45;0.98;;;10.30;99.90;;;;;;6193733;23;20441;-88
2022/09/23 07:35:37;;;;;;;1.13;0.97;;;10.40;99.90;;;;;;6168679;23;20027;-87
2022/09/23 07:38:03;;;;;;;1.55;1.00;;;10.30;99.90;;;;;;6193785;23;20023;-87
2022/09/23 07:40:28;;;;;;;1.57;1.07;;;10.40;99.90;;;;;;6218169;23;20012;-86
2022/09/23 07:42:54;;;;;;;1.77;1.00;;;10.40;99.90;;;;;;6218209;23;20023;-91
2022/09/23 07:45:21;;;;;;;1.35;0.90;;;10.50;99.90;;;;;;6217860;23;20078;-87
2022/09/23 07:47:47;;;;;;;1.58;1.42;;;10.50;99.90;;;;;;6168983;23;20055;-87
2022/09/23 07:50:13;;;;;;;1.42;0.70;;;10.40;99.90;;;;;;6193895;23;20027;-86
2022/09/23 07:52:39;;;;;;;1.63;1.07;;;10.80;99.90;;;;;;6144987;23;20016;-86
2022/09/23 07:55:06;;;;;;;1.07;0.90;;;10.60;99.90;;;;;;6193854;23;20440;-86
2022/09/23 07:57:32;;;;;;;;;;;10.60;99.90;;;;;;6219185;23;20016;-86
2022/09/23 07:59:59;;;;;;;1.52;0.88;;;10.70;99.90;;;;;;6193847;23;19967;-87
2022/09/23 08:02:24;;;;;;;2.13;0.80;;;10.70;99.90;;;;;;6169412;23;20023;-86
2022/09/23 08:04:53;;;;;;;1.10;0.97;;;10.70;99.90;;;;;;6218821;23;20348;-86
2022/09/23 08:07:22;;;;;;;1.40;1.30;;;10.80;99.90;;;;;;6194179;23;20475;-85
2022/09/23 08:09:48;;;;;;;1.00;0.80;;;10.50;99.90;;;;;;6172048;23;20058;-86
2022/09/23 08:12:16;;;;;;;1.27;0.97;;;10.90;99.90;;;;;;6193481;23;20020;-86
2022/09/23 08:14:42;;;;;;;0.90;0.85;;;10.90;99.90;;;;;;6193894;23;20027;-88
2022/09/23 08:17:08;;;;;;;2.20;0.88;;;10.90;99.90;;;;;;6192757;23;20091;-88
2022/09/23 08:19:34;;;;;;;1.10;0.80;;;11.00;99.90;;;;;;6193987;23;20070;-88
2022/09/23 08:22:00;;;;;;;1.10;1.10;;;11.00;99.90;;;;;;6193584;23;20020;-88
2022/09/23 08:24:26;;;;;;;0.93;0.80;;;11.10;99.90;;;;;;6194072;23;20020;-87
2022/09/23 08:26:53;;;;;;;1.17;1.08;;;11.20;99.90;;;;;;6219153;23;20043;-88
2022/09/23 08:29:21;;;;;;;0.70;0.70;;;11.30;99.90;;;;;;6218082;23;20120;-87
2022/09/23 08:31:48;;;;;;;1.13;0.70;;;11.30;99.90;;;;;;6193775;23;20016;-91
2022/09/23 08:34:19;;;;;;;1.30;0.90;;;11.30;99.90;;;;;;6218664;23;20077;-96
2022/09/23 08:36:45;;;;;;;1.02;0.93;;;11.40;99.90;;;;;;6194742;23;20020;-95
2022/09/23 08:39:18;;;;;;;1.45;0.90;;;11.50;99.90;;;;;;6219326;23;20020;-93
2022/09/23 08:41:55;;;;;;;1.10;1.00;;;11.50;99.90;;;;;;6219728;23;20016;-95
2022/09/23 08:44:25;;;;;;;2.15;1.20;;;11.50;99.90;;;;;;6193830;23;20016;-94
2022/09/23 08:47:16;;;;;;;1.08;1.02;;;11.60;99.90;;;;;;6220388;23;20042;-94
2022/09/23 08:50:17;;;;;;;0.80;0.80;;;11.60;99.90;;;;;;6196638;23;20024;-94
2022/09/23 08:52:53;;;;;;;0.85;0.75;;;11.70;99.90;;;;;;6192238;23;20074;-94
2022/09/23 08:55:28;;;;;;;2.45;0.98;;;11.80;99.90;;;;;;6218955;23;20441;-95
2022/09/23 08:58:07;;;;;;;0.73;0.63;;;11.90;99.90;;;;;;6219484;23;20444;-94
2022/09/23 09:00:40;;;;;;;1.67;0.95;;;12.00;99.90;;;;;;6194598;23;20069;-94
2022/09/23 09:03:23;;;;;;;0.60;0.60;;;12.10;99.90;;;;;;6201153;23;20070;-94
2022/09/23 09:05:51;;;;;;;1.38;0.93;;;12.20;99.90;;;;;;6166925;23;20118;-94
2022/09/23 09:08:33;;;;;;;0.60;0.60;;;12.20;99.90;;;;;;6164100;23;20017;-95
2022/09/23 09:10:59;;;;;;;1.90;0.90;;;12.30;99.90;;;;;;6167163;23;20035;-95
2022/09/23 09:13:32;;;;;;;1.38;0.90;;;12.40;99.90;;;;;;6191232;23;20020;-96
2022/09/23 09:16:20;;;;;;;0.77;0.77;;;12.50;99.90;;;;;;6164873;23;20020;-95
2022/09/23 09:19:19;;;;;;;0.90;0.90;;;12.60;99.90;;;;;;6129255;23;20511;-94
2022/09/23 09:21:48;;;;;;;0.85;0.85;;;12.70;99.90;;;;;;6164481;23;20059;-94
2022/09/23 09:24:26;;;;;;;0.57;0.57;;;12.70;99.90;;;;;;6164255;23;20021;-94
2022/09/23 09:26:52;;;;;;;1.33;0.80;;;12.80;99.90;;;;;;6164261;23;20020;-94
2022/09/23 09:29:30;;;;;;;0.77;0.77;;;12.80;99.90;;;;;;6163912;23;20017;-96
2022/09/23 09:31:56;;;;;;;2.22;1.10;;;12.90;99.90;;;;;;6189029;23;20020;-94
2022/09/23 09:34:25;;;;;;;1.02;0.70;;;12.90;99.90;;;;;;6139173;23;20016;-95
2022/09/23 09:37:07;;;;;;;1.85;1.00;;;12.90;99.90;;;;;;6164301;23;20016;-95
2022/09/23 09:39:34;;;;;;;1.00;0.90;;;13.00;99.90;;;;;;6163922;23;20052;-94
2022/09/23 09:42:00;;;;;;;1.10;0.82;;;13.00;99.90;;;;;;6164450;23;20103;-94
2022/09/23 09:44:40;;;;;;;1.05;0.75;;;13.10;99.90;;;;;;6164080;23;20044;-94
2022/09/23 09:47:15;;;;;;;1.45;0.70;;;13.20;99.90;;;;;;6189079;23;20063;-96
2022/09/23 09:49:48;;;;;;;0.60;0.60;;;13.20;99.90;;;;;;6189492;23;20331;-95
2022/09/23 09:52:21;;;;;;;1.00;0.70;;;13.30;99.90;;;;;;6188616;23;20023;-95
2022/09/23 09:54:49;;;;;;;0.80;0.68;;;13.40;99.90;;;;;;6164616;23;20020;-94
2022/09/23 09:57:30;;;;;;;1.63;0.63;;;13.50;99.90;;;;;;6164115;23;20016;-95
2022/09/23 09:59:57;;;;;;;1.60;0.70;;;13.60;99.90;;;;;;6164749;23;20038;-96
2022/09/23 10:02:28;;;;;;;0.55;0.55;;;13.70;99.90;;;;;;6163669;23;20472;-95
2022/09/23 10:05:00;;;;;;;0.52;0.52;;;13.70;99.90;;;;;;6189381;23;20028;-94
2022/09/23 10:07:32;;;;;;;1.00;0.93;;;13.90;99.90;;;;;;6189318;23;20021;-96
2022/09/23 10:10:16;;;;;;;1.80;0.80;;;14.00;99.90;;;;;;6190804;23;20019;-95
2022/09/23 10:12:48;;;;;;;1.05;0.70;;;14.00;99.90;;;;;;6191104;23;20460;-95
2022/09/23 10:15:42;;;;;;;0.77;0.60;;;14.00;99.90;;;;;;6191152;23;20455;-94
2022/09/23 10:18:37;;;;;;;0.93;0.65;;;14.00;99.90;;;;;;6166355;23;20142;-95
2022/09/23 10:21:14;;;;;;;1.02;0.98;;;14.00;99.90;;;;;;6218852;23;20318;-95
2022/09/23 10:23:44;;;;;;;0.68;0.60;;;14.10;99.90;;;;;;6191282;23;20020;-95
2022/09/23 10:26:11;;;;;;;0.90;0.63;;;14.00;99.90;;;;;;6190940;23;20066;-95
2022/09/23 10:28:42;;;;;;;0.93;0.60;;;14.00;99.90;;;;;;6165776;23;20445;-95
2022/09/23 10:31:24;;;;;;;1.55;0.70;;;14.00;99.90;;;;;;6191076;23;20016;-96
2022/09/23 10:34:00;;;;;;;1.23;0.80;;;14.00;99.90;;;;;;6191308;23;20024;-95
2022/09/23 10:36:31;;;;;;;1.08;0.80;;;14.10;99.90;;;;;;6190695;23;20024;-96
2022/09/23 10:48:24;;;;;;;3.92;0.68;;;14.30;99.90;;;;;;6190449;23;20071;-94
2022/09/23 10:50:52;;;;;;;2.33;0.80;;;14.30;99.90;;;;;;6190945;23;20020;-95
2022/09/23 10:53:29;;;;;;;1.27;0.82;;;14.40;99.90;;;;;;6141274;23;20020;-94
2022/09/23 10:56:14;;;;;;;0.60;0.60;;;14.40;99.90;;;;;;6165564;23;20017;-94
2022/09/23 10:58:40;;;;;;;1.30;1.00;;;14.50;99.90;;;;;;6189889;23;20392;-94
2022/09/23 11:01:30;;;;;;;1.37;0.90;;;14.20;99.90;;;;;;6165828;23;20024;-95
2022/09/23 11:04:27;;;;;;;1.33;0.88;;;14.60;99.90;;;;;;6190637;23;20318;-95
2022/09/23 11:06:58;;;;;;;0.90;0.68;;;14.60;99.90;;;;;;6165593;23;20017;-94
2022/09/23 11:09:46;;;;;;;0.82;0.80;;;14.60;99.90;;;;;;6165136;23;20056;-94
2022/09/23 11:12:23;;;;;;;;;;;14.60;99.90;;;;;;6190950;23;20017;-94
2022/09/23 11:14:58;;;;;;;2.05;0.63;;;14.70;99.90;;;;;;6165943;23;20009;-95
2022/09/23 11:17:42;;;;;;;1.45;1.00;;;14.70;99.90;;;;;;6165079;23;20036;-95
2022/09/23 11:20:22;;;;;;;1.60;0.88;;;14.70;99.90;;;;;;6189988;23;20048;-95
2022/09/23 11:23:26;;;;;;;1.23;0.90;;;14.70;99.90;;;;;;6165513;23;20017;-95
2022/09/23 11:26:00;;;;;;;1.27;1.10;;;14.70;99.90;;;;;;6165470;23;20058;-95
2022/09/23 11:28:57;;;;;;;0.80;0.60;;;14.70;99.90;;;;;;6164889;23;20070;-96
2022/09/23 11:31:40;;;;;;;1.48;1.00;;;14.70;99.90;;;;;;6165001;23;20079;-94
2022/09/23 11:34:26;;;;;;;0.88;0.82;;;14.70;99.90;;;;;;6165842;23;20067;-95
2022/09/23 11:36:59;;;;;;;0.75;0.60;;;14.70;99.90;;;;;;6166434;23;20079;-95
2022/09/23 11:39:48;;;;;;;1.27;1.02;;;14.70;99.90;;;;;;6191818;23;20012;-95
2022/09/23 11:42:38;;;;;;;1.25;0.75;;;14.70;99.90;;;;;;6165613;23;20020;-96
2022/09/23 11:45:38;;;;;;;1.27;0.80;;;14.60;99.90;;;;;;6166966;23;20021;-94
2022/09/23 11:48:19;;;;;;;0.98;0.93;;;14.60;99.90;;;;;;6191505;23;20017;-95
2022/09/23 11:50:57;;;;;;;1.13;0.77;;;14.60;99.90;;;;;;6165465;23;20333;-95
2022/09/23 11:53:41;;;;;;;1.50;0.77;;;14.60;99.90;;;;;;6165955;23;20020;-95
2022/09/23 11:56:15;;;;;;;0.68;0.60;;;14.60;99.90;;;;;;6165479;23;20083;-95
2022/09/23 11:59:02;;;;;;;2.45;1.15;;;14.60;99.90;;;;;;6189719;23;20012;-94
2022/09/23 12:01:35;;;;;;;1.00;0.90;;;14.50;99.90;;;;;;6164614;23;20114;-86
2022/09/23 12:04:11;;;;;;;1.42;0.80;;;14.50;99.90;;;;;;6188968;23;20013;-89
2022/09/23 12:06:48;;;;;;;0.88;0.63;;;14.50;99.90;;;;;;6190756;23;20433;-89
2022/09/23 12:09:26;;;;;;;1.70;1.17;;;14.50;99.90;;;;;;6190555;23;20020;-91
2022/09/23 12:12:24;;;;;;;1.80;0.70;;;14.50;99.90;;;;;;6190597;23;20012;-95
2022/09/23 12:15:03;;;;;;;1.50;0.57;;;14.50;99.90;;;;;;6189986;23;20602;-95
2022/09/23 12:18:01;;;;;;;1.60;0.93;;;14.60;99.90;;;;;;6165105;23;20020;-93
2022/09/23 12:21:04;;;;;;;1.02;0.93;;;14.60;99.90;;;;;;6125496;23;20017;-92
2022/09/23 12:24:07;;;;;;;0.60;0.60;;;14.60;99.90;;;;;;6163041;23;20023;-91
2022/09/23 12:26:34;;;;;;;0.65;0.65;;;14.60;99.90;;;;;;6164008;23;20325;-91
2022/09/23 12:29:03;;;;;;;2.08;0.80;;;14.60;99.90;;;;;;6164004;23;20385;-92
2022/09/23 12:31:35;;;;;;;1.35;0.90;;;14.60;99.90;;;;;;6188427;23;20012;-92
2022/09/23 12:34:07;;;;;;;1.17;1.08;;;14.60;99.90;;;;;;6188415;23;20095;-91
2022/09/23 12:36:34;;;;;;;0.93;0.60;;;14.70;99.90;;;;;;6163280;23;20016;-89
2022/09/23 12:39:23;;;;;;;0.52;0.52;;;14.70;99.90;;;;;;6163855;23;20027;-91
2022/09/23 12:41:55;;;;;;;1.70;0.80;;;14.70;99.90;;;;;;6164239;23;20062;-91
2022/09/23 12:44:41;;;;;;;0.77;0.77;;;14.70;99.90;;;;;;6188484;23;20326;-90
2022/09/23 12:47:19;;;;;;;1.08;0.80;;;14.70;99.90;;;;;;6189711;23;20082;-90
2022/09/23 12:49:47;;;;;;;1.30;0.90;;;14.80;99.90;;;;;;6188051;23;20008;-90
2022/09/23 12:52:30;;;;;;;1.70;0.98;;;14.80;99.90;;;;;;6163702;23;20175;-91
2022/09/23 12:55:01;;;;;;;1.95;0.70;;;14.80;99.90;;;;;;6187384;23;20020;-90
2022/09/23 12:57:33;;;;;;;1.65;0.80;;;14.90;99.90;;;;;;6163070;23;20012;-90
2022/09/23 13:00:12;;;;;;;1.52;1.33;;;14.90;99.90;;;;;;6162613;23;20032;-93
2022/09/23 13:02:41;;;;;;;0.98;0.85;;;14.90;99.90;;;;;;6203476;23;20440;-89
2022/09/23 13:08:15;;;;;;;0.75;0.65;;;14.90;99.90;;;;;;6219381;23;20456;-96
2022/09/23 13:10:52;;;;;;;1.73;1.25;;;14.90;99.90;;;;;;6194675;23;20012;-96
2022/09/23 13:13:38;;;;;;;1.35;0.93;;;14.90;99.90;;;;;;6219198;23;20095;-95
2022/09/23 13:16:20;;;;;;;1.17;0.73;;;14.90;99.90;;;;;;6194033;23;20058;-96
2022/09/23 13:18:58;;;;;;;0.95;0.82;;;14.80;99.90;;;;;;6218492;23;20012;-96
2022/09/23 13:21:42;;;;;;;0.60;0.60;;;14.90;99.90;;;;;;6218973;23;20048;-96
2022/09/23 13:24:19;;;;;;;0.88;0.68;;;14.90;99.90;;;;;;6194725;23;20024;-96
2022/09/23 13:26:46;;;;;;;1.70;1.10;;;14.80;99.90;;;;;;6221347;23;20058;-96
2022/09/23 13:29:18;;;;;;;1.50;0.68;;;14.80;99.90;;;;;;6196890;23;20027;-96
2022/09/23 13:31:46;;;;;;;1.27;0.75;;;14.80;99.90;;;;;;6219748;23;20070;-96
2022/09/23 13:34:15;;;;;;;1.73;0.70;;;14.80;99.90;;;;;;6195025;23;20012;-96